Time;durP1;ratioP1;P1;durP2;ratioP2;P2;SDS_P1;SDS_P2;PMS_P1;PMS_P2;Temp;Humidity;BMP_temperature;BMP_pressure;BME280_temperature;BME280_humidity;BME280_pressure;Samples;Min_cycle;Max_cycle;Signal;HPM_P1;HPM_P2
2021/12/15 00:09:41;;;;;;;33.60;14.35;;;1.00;99.90;;;;;;20637948;28;20120;-78
2021/12/15 00:19:43;;;;;;;43.08;16.50;;;1.00;99.90;;;;;;20639772;28;20022;-78
2021/12/15 00:29:44;;;;;;;48.80;17.27;;;1.10;99.90;;;;;;20630688;28;20535;-78
2021/12/15 00:39:45;;;;;;;57.25;18.10;;;1.10;99.90;;;;;;20614699;28;20061;-78
2021/12/15 00:49:46;;;;;;;49.13;18.67;;;1.00;99.90;;;;;;20630856;28;20041;-78
2021/12/15 00:59:47;;;;;;;44.30;17.67;;;1.00;99.90;;;;;;20671346;28;20564;-79
2021/12/15 01:09:55;;;;;;;64.40;19.48;;;0.90;99.90;;;;;;20671676;28;20123;-78
2021/12/15 01:19:58;;;;;;;49.45;18.83;;;1.00;99.90;;;;;;20669102;28;20533;-78
2021/12/15 01:29:59;;;;;;;62.28;19.35;;;0.90;99.90;;;;;;20669190;28;20661;-79
2021/12/15 01:40:00;;;;;;;58.58;20.23;;;1.00;99.90;;;;;;20673967;28;20089;-79
2021/12/15 01:50:00;;;;;;;83.30;22.30;;;0.90;99.90;;;;;;20671827;28;20030;-79
2021/12/15 02:00:10;;;;;;;102.25;24.35;;;1.00;99.90;;;;;;20671921;28;20026;-79
2021/12/15 02:10:17;;;;;;;104.32;22.00;;;1.00;99.90;;;;;;20671057;28;20042;-78
2021/12/15 02:20:20;;;;;;;77.47;22.88;;;1.00;99.90;;;;;;20670944;28;20112;-79
2021/12/15 02:40:28;;;;;;;98.57;23.77;;;1.00;99.90;;;;;;20670993;28;20081;-79
2021/12/15 02:50:30;;;;;;;128.02;22.35;;;1.10;99.90;;;;;;20659959;28;20118;-79
2021/12/15 03:00:46;;;;;;;98.45;23.45;;;1.10;99.90;;;;;;20661515;28;20153;-80
2021/12/15 03:21:25;;;;;;;68.40;22.27;;;1.10;99.90;;;;;;20681994;28;20034;-79
2021/12/15 03:41:51;;;;;;;62.03;21.88;;;1.20;99.90;;;;;;20685377;28;20049;-79
2021/12/15 03:51:53;;;;;;;66.90;20.63;;;1.20;99.90;;;;;;20683062;28;20034;-78
2021/12/15 04:01:54;;;;;;;70.72;22.15;;;1.10;99.90;;;;;;20684918;28;20026;-79
2021/12/15 04:11:55;;;;;;;76.93;22.08;;;1.20;99.90;;;;;;20682998;28;20037;-80
2021/12/15 04:21:56;;;;;;;68.28;20.85;;;1.20;99.90;;;;;;20685358;28;20042;-79
2021/12/15 04:32:09;;;;;;;62.92;20.33;;;1.20;99.90;;;;;;20685701;28;20034;-79
2021/12/15 04:42:11;;;;;;;67.35;21.42;;;1.20;99.90;;;;;;20676245;28;20435;-76
2021/12/15 04:52:14;;;;;;;76.50;21.95;;;1.20;99.90;;;;;;20671251;28;20545;-77
2021/12/15 05:02:18;;;;;;;64.25;23.17;;;1.30;99.90;;;;;;20674177;28;20054;-78
2021/12/15 05:12:20;;;;;;;62.85;19.40;;;1.40;99.90;;;;;;20685870;28;20037;-79
2021/12/15 05:22:21;;;;;;;49.72;20.00;;;1.40;99.90;;;;;;20685804;28;20034;-79
2021/12/15 05:32:22;;;;;;;66.72;19.50;;;1.40;99.90;;;;;;20684894;28;20089;-79
2021/12/15 05:42:24;;;;;;;79.05;20.83;;;1.40;99.90;;;;;;20682860;28;20026;-80
2021/12/15 05:52:29;;;;;;;62.63;19.90;;;1.40;99.90;;;;;;20682747;28;20061;-80
2021/12/15 06:02:30;;;;;;;62.72;19.75;;;1.40;99.90;;;;;;20683326;28;20045;-79
2021/12/15 06:12:31;;;;;;;79.90;21.30;;;1.40;99.90;;;;;;20681712;28;20434;-79
2021/12/15 06:22:33;;;;;;;147.65;25.20;;;1.40;99.90;;;;;;20682184;28;20063;-79
2021/12/15 06:32:35;;;;;;;110.10;25.70;;;1.40;99.90;;;;;;20672998;28;20026;-78
2021/12/15 06:42:37;;;;;;;93.32;24.77;;;1.40;99.90;;;;;;20668799;28;20070;-78
2021/12/15 07:02:48;;;;;;;86.25;22.20;;;1.50;99.90;;;;;;20670330;28;20034;-79
2021/12/15 07:12:49;;;;;;;63.97;20.45;;;1.50;99.90;;;;;;20672432;28;20030;-79
2021/12/15 07:22:50;;;;;;;79.80;21.70;;;1.60;99.90;;;;;;20676334;28;20065;-77
2021/12/15 07:32:51;;;;;;;88.07;21.35;;;1.60;99.90;;;;;;20651774;28;20576;-78
2021/12/15 07:43:09;;;;;;;90.63;20.83;;;1.60;99.90;;;;;;20609078;28;20560;-77
2021/12/15 07:53:10;;;;;;;118.43;22.73;;;1.70;99.90;;;;;;20602618;28;20536;-78
2021/12/15 08:03:12;;;;;;;99.57;21.17;;;1.80;99.90;;;;;;20610958;28;20057;-79
2021/12/15 08:13:15;;;;;;;61.90;20.70;;;1.80;99.90;;;;;;20611622;28;20093;-79
2021/12/15 08:23:17;;;;;;;193.80;23.15;;;1.90;99.90;;;;;;20613453;28;20080;-80
2021/12/15 08:33:21;;;;;;;131.63;22.83;;;1.90;99.90;;;;;;20611962;28;20475;-80
2021/12/15 08:43:23;;;;;;;81.38;22.13;;;2.00;99.90;;;;;;20605325;28;20045;-79
2021/12/15 08:53:24;;;;;;;67.18;18.67;;;2.10;99.90;;;;;;20610583;28;20035;-80
2021/12/15 09:03:27;;;;;;;88.45;21.73;;;2.10;99.90;;;;;;20604735;28;20524;-79
2021/12/15 09:13:30;;;;;;;71.68;21.50;;;2.20;99.90;;;;;;20607748;28;20108;-80
2021/12/15 09:23:31;;;;;;;72.80;20.85;;;2.30;99.90;;;;;;20604317;28;20066;-78
2021/12/15 09:33:33;;;;;;;76.80;20.35;;;2.30;99.90;;;;;;20616449;28;20041;-80
2021/12/15 09:43:36;;;;;;;63.20;19.52;;;2.30;99.90;;;;;;20605748;28;20122;-79
2021/12/15 10:24:48;;;;;;;68.13;21.33;;;2.80;99.90;;;;;;20592572;28;20170;-79
2021/12/15 10:35:00;;;;;;;55.88;17.98;;;2.90;99.90;;;;;;20587658;28;20109;-79
2021/12/15 10:45:10;;;;;;;48.15;17.83;;;3.00;99.90;;;;;;20586778;28;20438;-78
2021/12/15 10:55:11;;;;;;;50.13;15.50;;;3.10;99.90;;;;;;20586714;28;20035;-79
2021/12/15 11:05:21;;;;;;;53.75;16.77;;;3.10;99.90;;;;;;20585743;28;20042;-78
2021/12/15 11:15:31;;;;;;;54.00;21.83;;;3.10;99.90;;;;;;20585518;28;20030;-79
2021/12/15 11:25:44;;;;;;;39.90;15.27;;;3.20;99.90;;;;;;20587894;28;20088;-79
2021/12/15 11:36:02;;;;;;;23.58;9.00;;;3.30;99.90;;;;;;20598088;28;20068;-78
2021/12/15 11:46:29;;;;;;;16.67;7.15;;;3.20;99.90;;;;;;20603578;28;20058;-79
2021/12/15 11:56:33;;;;;;;16.52;7.03;;;3.30;99.90;;;;;;20599166;28;20077;-78
2021/12/15 12:06:34;;;;;;;14.73;6.85;;;3.30;99.90;;;;;;20598336;28;20031;-78
2021/12/15 12:16:35;;;;;;;24.73;7.75;;;3.50;99.90;;;;;;20598813;28;20072;-79
2021/12/15 12:26:36;;;;;;;13.85;6.25;;;3.50;99.90;;;;;;20597309;28;20139;-78
2021/12/15 12:36:37;;;;;;;17.50;7.60;;;3.60;99.90;;;;;;20597275;28;20117;-78
2021/12/15 12:46:53;;;;;;;12.63;6.60;;;3.60;99.90;;;;;;20593606;28;20035;-77
2021/12/15 13:07:48;;;;;;;14.85;7.05;;;3.70;99.90;;;;;;20590271;28;20053;-78
2021/12/15 13:17:58;;;;;;;16.70;6.97;;;3.70;99.90;;;;;;20589447;28;20034;-78
2021/12/15 13:38:46;;;;;;;12.75;5.70;;;3.70;99.90;;;;;;20588059;28;20118;-77
2021/12/15 13:49:24;;;;;;;10.95;4.85;;;3.70;99.90;;;;;;20587229;28;20035;-77
2021/12/15 13:59:35;;;;;;;9.57;5.07;;;3.70;99.90;;;;;;20586240;28;20034;-77
2021/12/15 14:09:36;;;;;;;;;;;3.60;99.90;;;;;;20585474;28;20423;-78
2021/12/15 14:19:37;;;;;;;9.80;4.30;;;3.60;99.90;;;;;;20584668;28;19988;-78
2021/12/15 14:29:39;;;;;;;8.80;4.80;;;3.50;99.90;;;;;;20584511;28;20030;-78
2021/12/15 14:39:43;;;;;;;7.88;4.45;;;3.50;99.90;;;;;;20583529;28;20057;-78
2021/12/15 14:49:53;;;;;;;9.73;5.20;;;3.50;99.90;;;;;;20582732;28;20554;-78
2021/12/15 15:00:00;;;;;;;10.68;5.10;;;3.40;99.90;;;;;;20582257;28;20042;-78
2021/12/15 15:10:06;;;;;;;8.90;4.78;;;3.40;99.90;;;;;;20582048;28;20393;-77
2021/12/15 15:20:14;;;;;;;8.00;4.30;;;3.40;99.90;;;;;;20594673;28;20093;-78
2021/12/15 15:30:20;;;;;;;7.78;4.90;;;3.40;99.90;;;;;;20598501;28;20030;-78
2021/12/15 15:40:36;;;;;;;7.72;4.50;;;3.30;99.90;;;;;;20597644;28;20518;-78
2021/12/15 15:50:40;;;;;;;8.10;4.47;;;3.30;99.90;;;;;;20597123;28;20031;-79
2021/12/15 16:00:52;;;;;;;8.10;4.15;;;3.30;99.90;;;;;;20595312;28;20030;-78
2021/12/15 16:10:55;;;;;;;9.55;4.90;;;3.20;99.90;;;;;;20595086;28;20045;-77
2021/12/15 16:31:09;;;;;;;9.32;5.30;;;3.10;99.90;;;;;;20592403;28;20557;-78
2021/12/15 16:41:17;;;;;;;12.07;5.75;;;3.20;99.90;;;;;;20591390;28;20041;-77
2021/12/15 16:51:18;;;;;;;9.73;5.55;;;3.10;99.90;;;;;;20591325;28;20058;-78
2021/12/15 17:01:19;;;;;;;9.57;5.03;;;3.00;99.90;;;;;;20610864;28;20557;-77
2021/12/15 17:11:20;;;;;;;11.35;5.32;;;3.00;99.90;;;;;;20662058;28;20180;-77
2021/12/15 17:21:26;;;;;;;9.98;6.47;;;2.90;99.90;;;;;;20669518;28;20026;-77
2021/12/15 17:31:31;;;;;;;11.73;6.32;;;2.90;99.90;;;;;;20636436;28;20033;-76
2021/12/15 17:41:50;;;;;;;12.32;7.18;;;2.90;99.90;;;;;;20584758;28;20515;-76
2021/12/15 17:51:54;;;;;;;13.45;7.03;;;2.90;99.90;;;;;;20586564;28;20035;-77
2021/12/15 18:01:55;;;;;;;18.13;7.80;;;2.90;99.90;;;;;;20585952;28;20081;-78
2021/12/15 18:11:59;;;;;;;15.88;7.60;;;2.80;99.90;;;;;;20585716;28;20398;-77
2021/12/15 18:22:00;;;;;;;11.65;6.20;;;2.80;99.90;;;;;;20583943;28;20035;-76
2021/12/15 18:32:04;;;;;;;15.23;7.18;;;2.80;99.90;;;;;;20582466;28;20027;-76
2021/12/15 18:42:06;;;;;;;13.88;6.97;;;2.80;99.90;;;;;;20582823;28;20030;-78
2021/12/15 18:52:11;;;;;;;12.50;6.93;;;2.80;99.90;;;;;;20581728;28;20529;-77
2021/12/15 19:02:16;;;;;;;12.75;7.35;;;2.80;99.90;;;;;;20578931;28;20030;-77
2021/12/15 19:12:19;;;;;;;17.17;7.85;;;2.90;99.90;;;;;;20581853;28;20039;-78
2021/12/15 19:22:24;;;;;;;19.38;7.93;;;3.00;99.90;;;;;;20580682;28;20039;-77
2021/12/15 19:32:25;;;;;;;20.02;7.45;;;2.90;99.90;;;;;;20580829;28;20046;-77
2021/12/15 19:42:27;;;;;;;15.88;7.35;;;2.90;99.90;;;;;;20582706;28;20129;-76
2021/12/15 19:52:28;;;;;;;13.32;6.72;;;2.90;99.90;;;;;;20579778;28;20061;-76
2021/12/15 20:02:29;;;;;;;15.55;6.97;;;2.90;99.90;;;;;;20587478;28;20030;-78
2021/12/15 20:12:34;;;;;;;13.63;5.15;;;2.80;99.90;;;;;;20618184;28;20034;-78
2021/12/15 20:22:35;;;;;;;9.60;4.45;;;2.70;99.90;;;;;;20641986;28;20066;-77
2021/12/15 20:32:39;;;;;;;9.85;4.38;;;2.70;99.90;;;;;;20697871;28;20453;-78
2021/12/15 20:42:40;;;;;;;9.25;4.75;;;2.70;99.90;;;;;;20700042;28;20042;-78
2021/12/15 20:52:42;;;;;;;11.32;4.63;;;2.70;99.90;;;;;;20634997;28;20150;-77
2021/12/15 21:02:43;;;;;;;7.43;4.13;;;2.70;99.90;;;;;;20593199;28;20039;-76
2021/12/15 21:12:44;;;;;;;10.27;5.00;;;2.70;99.90;;;;;;20597284;28;20038;-76
2021/12/15 21:22:45;;;;;;;11.52;5.13;;;2.70;99.90;;;;;;20592640;28;20569;-76
2021/12/15 21:32:48;;;;;;;10.13;5.03;;;2.70;99.90;;;;;;20592837;28;20050;-76
2021/12/15 21:42:49;;;;;;;15.48;6.53;;;2.70;99.90;;;;;;20591099;28;20031;-76
2021/12/15 21:52:50;;;;;;;12.60;5.68;;;2.80;99.90;;;;;;20589903;28;20035;-76
2021/12/15 22:02:53;;;;;;;10.20;5.03;;;2.90;99.90;;;;;;20592356;28;20031;-77
2021/12/15 22:12:54;;;;;;;11.52;4.97;;;2.90;99.90;;;;;;20589065;28;20100;-78
2021/12/15 22:22:55;;;;;;;8.45;4.65;;;2.80;99.90;;;;;;20594425;28;20130;-77
2021/12/15 22:33:02;;;;;;;10.68;4.72;;;2.90;99.90;;;;;;20590831;28;20505;-77
2021/12/15 22:43:04;;;;;;;17.33;4.93;;;2.80;99.90;;;;;;20590362;28;20042;-77
2021/12/15 22:53:05;;;;;;;11.20;4.80;;;2.90;99.90;;;;;;20595882;28;20031;-76
2021/12/15 23:03:10;;;;;;;14.27;5.57;;;2.90;99.90;;;;;;20627475;28;20065;-77
2021/12/15 23:13:11;;;;;;;10.65;5.03;;;3.00;99.90;;;;;;20652379;28;20041;-78
2021/12/15 23:23:15;;;;;;;9.00;4.00;;;3.00;99.90;;;;;;20670785;28;20042;-78
2021/12/15 23:33:16;;;;;;;10.02;3.30;;;2.80;99.90;;;;;;20671550;28;20038;-77
